Time;durP1;ratioP1;P1;durP2;ratioP2;P2;SDS_P1;SDS_P2;PMS_P1;PMS_P2;Temp;Humidity;BMP_temperature;BMP_pressure;BME280_temperature;BME280_humidity;BME280_pressure;Samples;Min_cycle;Max_cycle;Signal;HPM_P1;HPM_P2
2024/01/02 00:02:29;;;;;;;1999.90;999.90;;;;;;;6.69;100.00;100042.06;10418838;28;20053;-70
2024/01/02 00:07:32;;;;;;;1999.90;999.90;;;;;;;6.72;100.00;100038.44;10418836;28;20056;-70
2024/01/02 00:12:34;;;;;;;1999.90;999.90;;;;;;;6.67;100.00;100012.69;10418056;28;20053;-70
2024/01/02 00:17:36;;;;;;;1999.90;999.90;;;;;;;6.93;100.00;100005.22;10418054;28;20046;-70
2024/01/02 00:22:39;;;;;;;1999.90;999.90;;;;;;;6.73;100.00;99987.28;10417497;28;20072;-70
2024/01/02 00:27:41;;;;;;;1999.90;999.90;;;;;;;6.80;100.00;99973.84;10417437;28;20496;-70
2024/01/02 00:32:44;;;;;;;1999.90;999.90;;;;;;;6.74;100.00;99962.91;10399925;28;20055;-70
2024/01/02 00:37:48;;;;;;;1999.90;999.90;;;;;;;6.71;100.00;99940.53;10417829;28;20077;-70
2024/01/02 00:42:50;;;;;;;1999.90;999.90;;;;;;;6.76;100.00;99940.25;10416911;28;20408;-70
2024/01/02 00:47:52;;;;;;;1999.90;999.90;;;;;;;6.90;100.00;99901.31;10416735;28;20045;-70
2024/01/02 00:52:55;;;;;;;1999.90;999.90;;;;;;;6.77;100.00;99869.09;10416758;28;20133;-70
2024/01/02 00:57:57;;;;;;;1999.90;999.90;;;;;;;6.65;100.00;99852.41;10415626;28;20046;-70
2024/01/02 01:03:00;;;;;;;1999.90;999.90;;;;;;;6.87;100.00;99842.47;10416181;28;20139;-70
2024/01/02 01:08:03;;;;;;;1999.90;999.90;;;;;;;6.82;100.00;99835.84;10416029;28;20408;-70
2024/01/02 01:13:05;;;;;;;1999.90;999.90;;;;;;;6.94;100.00;99798.69;10382700;28;20570;-70
2024/01/02 01:18:08;;;;;;;1999.90;999.90;;;;;;;7.00;100.00;99784.50;10414826;28;20099;-70
2024/01/02 01:23:10;;;;;;;1999.90;999.90;;;;;;;6.79;100.00;99758.84;10415585;28;20064;-70
2024/01/02 01:28:13;;;;;;;1999.90;999.90;;;;;;;7.07;100.00;99732.00;10415578;28;20042;-70
2024/01/02 01:33:15;;;;;;;1999.90;999.90;;;;;;;7.04;100.00;99733.94;10415341;28;20053;-70
2024/01/02 01:38:17;;;;;;;1999.90;999.90;;;;;;;6.97;100.00;99712.66;10414140;28;20080;-70
2024/01/02 01:43:20;;;;;;;1999.90;999.90;;;;;;;6.97;100.00;99683.19;10414165;28;20096;-70
2024/01/02 01:48:22;;;;;;;1999.90;999.90;;;;;;;7.03;100.00;99660.25;10414875;28;20041;-70
2024/01/02 01:53:25;;;;;;;1999.90;999.90;;;;;;;7.07;100.00;99642.66;10413938;28;20103;-70
2024/01/02 01:58:29;;;;;;;1999.90;999.90;;;;;;;7.16;100.00;99634.31;10414862;28;20045;-70
2024/01/02 02:03:31;;;;;;;1999.90;999.90;;;;;;;7.03;100.00;99615.19;10413673;28;20129;-70
2024/01/02 02:08:34;;;;;;;1999.90;999.90;;;;;;;6.86;100.00;99601.41;10416314;28;20133;-70
2024/01/02 02:13:36;;;;;;;1999.90;999.90;;;;;;;7.12;100.00;99575.53;10421615;28;20451;-70
2024/01/02 02:18:38;;;;;;;1999.90;999.90;;;;;;;6.97;100.00;99558.28;10405007;28;20465;-70
2024/01/02 02:23:41;;;;;;;1999.90;999.90;;;;;;;6.95;100.00;99541.94;10422130;28;20053;-70
2024/01/02 02:28:43;;;;;;;1999.90;999.90;;;;;;;7.10;100.00;99511.53;10420959;28;20489;-70
2024/01/02 02:33:46;;;;;;;1999.90;999.90;;;;;;;6.98;100.00;99508.75;10422150;28;20051;-70
2024/01/02 02:38:48;;;;;;;1999.90;999.90;;;;;;;7.09;100.00;99496.81;10392401;22;20089;-70
2024/01/02 02:43:51;;;;;;;1999.90;999.90;;;;;;;7.18;100.00;99478.03;10322932;28;20062;-70
2024/01/02 02:48:53;;;;;;;1999.90;999.90;;;;;;;7.01;100.00;99466.94;10338678;28;20046;-70
2024/01/02 02:53:56;;;;;;;1999.90;999.90;;;;;;;7.10;100.00;99451.66;10338586;28;20125;-70
2024/01/02 02:58:58;;;;;;;1999.90;999.90;;;;;;;7.14;100.00;99440.94;10339607;28;20409;-70
2024/01/02 03:04:00;;;;;;;1999.90;999.90;;;;;;;7.15;100.00;99408.78;10338510;28;20113;-70
2024/01/02 03:09:03;;;;;;;1999.90;999.90;;;;;;;7.19;100.00;99392.00;10338102;28;20080;-71
2024/01/02 03:14:05;;;;;;;1999.90;999.90;;;;;;;7.03;100.00;99373.97;10339047;28;20057;-70
2024/01/02 03:19:08;;;;;;;1999.90;999.90;;;;;;;7.01;100.00;99359.38;10338012;28;20052;-70
2024/01/02 03:24:10;;;;;;;1999.90;999.90;;;;;;;7.05;100.00;99327.03;10337427;28;20057;-70
2024/01/02 03:29:13;;;;;;;1999.90;999.90;;;;;;;7.22;100.00;99312.88;10338686;28;20046;-70
2024/01/02 03:34:15;;;;;;;1999.90;999.90;;;;;;;7.02;100.00;99304.63;10338335;28;20134;-70
2024/01/02 03:39:17;;;;;;;1999.90;999.90;;;;;;;7.26;100.00;99262.28;10337031;28;20050;-70
2024/01/02 03:44:20;;;;;;;1999.90;999.90;;;;;;;7.08;100.00;99235.75;10337850;28;20468;-70
2024/01/02 03:49:22;;;;;;;1999.90;999.90;;;;;;;7.04;100.00;99222.09;10337633;28;20430;-70
2024/01/02 03:54:25;;;;;;;1999.90;999.90;;;;;;;7.20;100.00;99198.47;10320458;28;20113;-70
2024/01/02 03:59:27;;;;;;;1999.90;999.90;;;;;;;7.12;100.00;99181.72;10337303;28;20050;-71
2024/01/02 04:04:30;;;;;;;1999.90;999.90;;;;;;;7.15;100.00;99166.72;10337380;28;20046;-70
2024/01/02 04:09:32;;;;;;;1999.90;999.90;;;;;;;7.30;100.00;99177.84;10336917;28;20058;-70
2024/01/02 04:14:34;;;;;;;1999.90;999.90;;;;;;;7.21;100.00;99160.22;10335544;28;20056;-70
2024/01/02 04:19:37;;;;;;;1999.90;999.90;;;;;;;7.10;100.00;99161.00;10336706;28;20134;-70
2024/01/02 04:24:39;;;;;;;1999.90;999.90;;;;;;;7.21;100.00;99152.44;10335555;28;20082;-70
2024/01/02 04:29:41;;;;;;;1999.90;999.90;;;;;;;7.28;100.00;99143.28;10336017;28;20054;-70
2024/01/02 04:34:44;;;;;;;1999.90;999.90;;;;;;;7.11;100.00;99115.81;10335859;28;20046;-70
2024/01/02 04:39:46;;;;;;;1999.90;999.90;;;;;;;7.59;100.00;99148.91;10335765;28;20062;-70
2024/01/02 04:44:48;;;;;;;1999.90;999.90;;;;;;;7.31;100.00;99111.78;10335696;28;20050;-70
2024/01/02 04:49:51;;;;;;;1999.90;999.90;;;;;;;7.38;100.00;99118.25;10335265;28;20398;-70
2024/01/02 04:54:53;;;;;;;1999.90;999.90;;;;;;;7.44;100.00;99111.75;10333984;28;20486;-70
2024/01/02 04:59:56;;;;;;;1999.90;999.90;;;;;;;7.59;100.00;99099.41;10335034;28;20536;-70
2024/01/02 05:04:58;;;;;;;1999.90;999.90;;;;;;;7.70;100.00;99102.09;10334994;28;20057;-70
2024/01/02 05:10:00;;;;;;;1999.90;999.90;;;;;;;7.80;100.00;99079.63;10333518;28;20050;-70
2024/01/02 05:15:03;;;;;;;1999.90;999.90;;;;;;;8.04;100.00;99102.22;10334443;28;20134;-70
2024/01/02 05:20:06;;;;;;;1999.90;999.90;;;;;;;8.08;100.00;99095.81;10334333;28;20064;-70
2024/01/02 05:25:12;;;;;;;1999.90;999.90;;;;;;;8.32;100.00;99101.00;10334281;28;20057;-70
2024/01/02 05:30:15;;;;;;;1999.90;999.90;;;;;;;8.42;100.00;99106.34;10332929;28;20052;-70
2024/01/02 05:35:18;;;;;;;1999.90;999.90;;;;;;;8.60;100.00;99078.06;10333953;28;20054;-70
2024/01/02 05:40:20;;;;;;;1999.90;999.90;;;;;;;8.53;100.00;99074.28;10332914;28;20505;-70
2024/01/02 05:45:23;;;;;;;1999.90;999.90;;;;;;;8.61;100.00;99082.34;10333368;28;20054;-70
2024/01/02 05:50:25;;;;;;;1999.90;999.90;;;;;;;8.71;100.00;99066.81;10333453;28;20367;-70
2024/01/02 05:55:27;;;;;;;1999.90;999.90;;;;;;;8.84;100.00;99083.19;10333546;28;20560;-70
2024/01/02 06:00:30;;;;;;;1999.90;999.90;;;;;;;9.19;100.00;99087.41;10333374;28;20054;-70
2024/01/02 06:05:33;;;;;;;1999.90;999.90;;;;;;;9.09;100.00;99081.25;10333872;28;20057;-70
2024/01/02 06:10:36;;;;;;;1999.90;999.90;;;;;;;9.34;100.00;99093.19;10333324;28;20086;-70
2024/01/02 06:15:39;;;;;;;1999.90;999.90;;;;;;;9.30;100.00;99097.84;10333237;28;20062;-71
2024/01/02 06:20:41;;;;;;;1999.90;999.90;;;;;;;9.41;100.00;99104.00;10333241;28;20050;-71
2024/01/02 06:25:43;;;;;;;1999.90;999.90;;;;;;;9.65;100.00;99098.59;10331885;28;20057;-71
2024/01/02 06:30:46;;;;;;;1999.90;999.90;;;;;;;9.76;100.00;99101.16;10332929;28;20387;-71
2024/01/02 06:35:49;;;;;;;1999.90;999.90;;;;;;;9.88;100.00;99120.25;10332940;28;20054;-71
2024/01/02 06:40:53;;;;;;;1999.90;999.90;;;;;;;9.94;100.00;99129.41;10333001;28;20085;-71
2024/01/02 06:45:55;;;;;;;1999.90;999.90;;;;;;;9.96;100.00;99130.09;10331464;28;20125;-71
2024/01/02 06:50:57;;;;;;;1999.90;999.90;;;;;;;9.97;100.00;99136.97;10332480;28;20076;-71
2024/01/02 06:56:00;;;;;;;1999.90;999.90;;;;;;;10.14;100.00;99156.53;10335748;28;20051;-71
2024/01/02 07:01:02;;;;;;;1999.90;999.90;;;;;;;10.35;100.00;99161.81;10339747;28;20054;-71
2024/01/02 07:06:06;;;;;;;1999.90;999.90;;;;;;;10.36;100.00;99158.25;10338152;28;20504;-71
2024/01/02 07:11:09;;;;;;;1999.90;999.90;;;;;;;10.65;100.00;99166.28;10338552;28;20478;-71
2024/01/02 07:16:11;;;;;;;1999.90;999.90;;;;;;;10.51;100.00;99166.63;10339259;28;20061;-71
2024/01/02 07:21:13;;;;;;;1999.90;999.90;;;;;;;10.62;100.00;99176.19;10338913;28;20113;-71
2024/01/02 07:26:16;;;;;;;1999.90;999.90;;;;;;;10.68;100.00;99168.63;10337869;28;20053;-71
2024/01/02 07:31:19;;;;;;;1999.90;999.90;;;;;;;10.66;100.00;99178.41;10338665;28;20062;-71
2024/01/02 07:36:21;;;;;;;1999.90;999.90;;;;;;;10.89;100.00;99189.59;10338452;28;20048;-71
2024/01/02 07:41:24;;;;;;;1999.90;999.90;;;;;;;10.71;100.00;99199.81;10337836;28;20133;-71
2024/01/02 07:46:27;;;;;;;1999.90;999.90;;;;;;;10.68;100.00;99204.47;10337900;28;20053;-71
2024/01/02 07:51:29;;;;;;;1999.90;999.90;;;;;;;10.93;100.00;99225.00;10336552;28;20046;-71
2024/01/02 07:56:33;;;;;;;1999.90;999.90;;;;;;;10.88;100.00;99228.97;10336467;28;20074;-71
2024/01/02 08:01:35;;;;;;;1999.90;999.90;;;;;;;11.01;100.00;99237.47;10336532;28;20454;-71
2024/01/02 08:06:38;;;;;;;1999.90;999.90;;;;;;;10.97;100.00;99244.72;10336607;28;20097;-71
2024/01/02 08:11:41;;;;;;;1999.90;999.90;;;;;;;11.07;100.00;99239.56;10337475;28;20129;-71
2024/01/02 08:16:43;;;;;;;1999.90;999.90;;;;;;;11.12;100.00;99236.56;10335829;28;20050;-72
2024/01/02 08:21:46;;;;;;;1999.90;999.90;;;;;;;10.94;100.00;99236.31;10336722;28;20050;-71
2024/01/02 08:26:49;;;;;;;1999.90;999.90;;;;;;;11.05;100.00;99236.25;10336191;28;20042;-71
2024/01/02 08:31:52;;;;;;;1999.90;999.90;;;;;;;11.32;100.00;99216.53;10333341;28;20135;-71
2024/01/02 08:36:55;;;;;;;1999.90;999.90;;;;;;;11.27;100.00;99213.47;10334404;28;20056;-71
2024/01/02 08:41:57;;;;;;;1999.90;999.90;;;;;;;11.22;100.00;99213.84;10334521;28;20149;-71
2024/01/02 08:46:59;;;;;;;1999.90;999.90;;;;;;;11.49;100.00;99217.69;10335292;28;20050;-71
2024/01/02 08:52:03;;;;;;;1999.90;999.90;;;;;;;11.34;100.00;99210.19;10334389;28;20092;-71
2024/01/02 08:57:05;;;;;;;1999.90;999.90;;;;;;;11.32;100.00;99222.59;10335117;28;20482;-71
2024/01/02 09:02:08;;;;;;;1999.90;999.90;;;;;;;11.57;100.00;99209.19;10333872;28;20386;-71
2024/01/02 09:07:10;;;;;;;1999.90;999.90;;;;;;;11.71;100.00;99206.16;10334903;28;20053;-71
2024/01/02 09:12:13;;;;;;;1999.90;999.90;;;;;;;11.33;100.00;99203.28;10334685;28;20125;-71
2024/01/02 09:17:16;;;;;;;1999.90;999.90;;;;;;;11.29;100.00;99209.75;10333971;28;20050;-71
2024/01/02 09:22:18;;;;;;;1999.90;999.90;;;;;;;11.29;100.00;99211.53;10334256;28;20121;-71
2024/01/02 09:27:20;;;;;;;1999.90;999.90;;;;;;;11.67;100.00;99200.38;10334158;28;20053;-71
2024/01/02 09:32:23;;;;;;;1999.90;999.90;;;;;;;11.49;100.00;99205.41;10333042;28;20061;-71
2024/01/02 09:37:25;;;;;;;1999.90;999.90;;;;;;;11.63;100.00;99188.50;10332637;28;20051;-71
2024/01/02 09:42:41;;;;;;;1999.90;999.90;;;;;;;11.55;100.00;99193.59;10332923;28;20073;-71
2024/01/02 09:47:52;;;;;;;1999.90;999.90;;;;;;;11.63;100.00;99187.66;10333761;28;20101;-71
2024/01/02 09:53:27;;;;;;;1999.90;999.90;;;;;;;11.53;100.00;99200.72;10332486;28;20490;-71
2024/01/02 09:58:51;;;;;;;1999.90;999.90;;;;;;;11.56;100.00;99186.53;10303728;28;20050;-71
2024/01/02 10:04:08;;;;;;;1999.90;999.90;;;;;;;11.78;100.00;99180.25;10332472;28;20057;-71
2024/01/02 10:09:26;;;;;;;1999.90;999.90;;;;;;;11.70;100.00;99196.63;10333560;28;20047;-71
2024/01/02 10:14:42;;;;;;;1999.90;999.90;;;;;;;11.34;100.00;99193.63;10333407;28;20065;-71
2024/01/02 10:19:55;;;;;;;1999.90;999.90;;;;;;;11.49;100.00;99199.34;10333704;28;20078;-71
2024/01/02 10:25:09;;;;;;;1999.90;999.90;;;;;;;11.45;100.00;99190.94;10332107;28;20093;-71
2024/01/02 10:30:19;;;;;;;1999.90;999.90;;;;;;;11.46;100.00;99181.25;10335408;28;20149;-71
2024/01/02 10:35:37;;;;;;;1999.90;999.90;;;;;;;11.59;100.00;99176.63;10339770;28;20046;-71
2024/01/02 10:40:51;;;;;;;1999.90;999.90;;;;;;;11.52;100.00;99165.84;10339306;28;20133;-71
2024/01/02 10:46:41;;;;;;;1999.90;999.90;;;;;;;11.64;100.00;99165.72;10339287;28;20053;-71
2024/01/02 10:51:47;;;;;;;1999.90;999.90;;;;;;;11.66;100.00;99145.44;10307799;28;20417;-71
2024/01/02 10:56:57;;;;;;;1999.90;999.90;;;;;;;11.38;100.00;99141.78;10338606;28;20046;-70
2024/01/02 11:02:13;;;;;;;1999.90;999.90;;;;;;;11.41;100.00;99144.16;10338417;28;20081;-70
2024/01/02 11:07:17;;;;;;;1999.90;999.90;;;;;;;11.44;100.00;99134.22;10339261;28;20048;-70
2024/01/02 11:12:22;;;;;;;1999.90;999.90;;;;;;;11.52;100.00;99126.53;10338305;28;20065;-70
2024/01/02 11:17:25;;;;;;;1999.90;999.90;;;;;;;11.36;100.00;99118.34;10337794;28;20077;-70
2024/01/02 11:22:39;;;;;;;1999.90;999.90;;;;;;;11.38;100.00;99121.69;10338778;28;20612;-71
2024/01/02 11:27:43;;;;;;;1999.90;999.90;;;;;;;11.56;100.00;99103.47;10337520;28;20050;-71
2024/01/02 11:33:05;;;;;;;1999.90;999.90;;;;;;;11.73;100.00;99073.16;10337495;28;20050;-71
2024/01/02 11:38:12;;;;;;;1999.90;999.90;;;;;;;11.79;100.00;99071.78;10320926;28;20069;-71
2024/01/02 11:43:33;;;;;;;1999.90;999.90;;;;;;;11.53;100.00;99067.91;10336065;28;20527;-71
2024/01/02 11:48:43;;;;;;;1999.90;999.90;;;;;;;11.45;100.00;99066.94;10336729;28;20076;-71
2024/01/02 11:54:07;;;;;;;1999.90;999.90;;;;;;;11.48;100.00;99046.53;10320614;28;20077;-70
2024/01/02 11:59:24;;;;;;;1999.90;999.90;;;;;;;11.29;100.00;99044.69;10320266;28;20056;-70
2024/01/02 12:04:37;;;;;;;1999.90;999.90;;;;;;;11.31;100.00;99029.69;10337375;28;20050;-70
2024/01/02 12:09:48;;;;;;;1999.90;999.90;;;;;;;11.13;100.00;99029.50;10336957;28;20418;-70
2024/01/02 12:15:10;;;;;;;1999.90;999.90;;;;;;;11.02;100.00;99036.66;10336215;28;20133;-70
2024/01/02 12:20:17;;;;;;;1999.90;999.90;;;;;;;11.09;100.00;99008.94;10336103;28;20078;-71
2024/01/02 12:25:20;;;;;;;1999.90;999.90;;;;;;;11.01;100.00;99000.94;10335318;28;20057;-71
2024/01/02 12:30:38;;;;;;;1999.90;999.90;;;;;;;10.90;100.00;98994.84;10335051;28;20050;-71
2024/01/02 12:35:55;;;;;;;1999.90;999.90;;;;;;;10.86;100.00;98990.00;10335598;28;20050;-71
2024/01/02 12:41:00;;;;;;;1999.90;999.90;;;;;;;10.80;100.00;98974.84;10335620;28;20111;-71
2024/01/02 12:46:06;;;;;;;1999.90;999.90;;;;;;;10.82;100.00;98967.69;10318260;28;20409;-71
2024/01/02 12:51:11;;;;;;;1999.90;999.90;;;;;;;10.71;100.00;98943.28;10318927;28;20405;-71
2024/01/02 12:56:17;;;;;;;1999.90;999.90;;;;;;;10.68;100.00;98938.31;10335204;28;20480;-71
2024/01/02 13:01:20;;;;;;;1999.90;999.90;;;;;;;10.64;100.00;98923.00;10334044;28;20056;-72
2024/01/02 13:06:23;;;;;;;1999.90;999.90;;;;;;;10.46;100.00;98907.16;10335367;28;20482;-72
2024/01/02 13:11:26;;;;;;;1999.90;999.90;;;;;;;10.54;100.00;98886.34;10333806;28;20050;-72
2024/01/02 13:16:28;;;;;;;1999.90;999.90;;;;;;;10.59;100.00;98874.53;10333512;28;20061;-72
2024/01/02 13:21:31;;;;;;;1999.90;999.90;;;;;;;10.55;100.00;98859.22;10334612;28;20121;-72
2024/01/02 13:26:43;;;;;;;1999.90;999.90;;;;;;;10.49;100.00;98854.53;10334136;28;20052;-72
2024/01/02 13:31:55;;;;;;;1999.90;999.90;;;;;;;10.57;100.00;98828.50;10333196;28;20085;-72
2024/01/02 13:36:58;;;;;;;1999.90;999.90;;;;;;;10.54;100.00;98821.78;10332871;28;20082;-72
2024/01/02 13:42:03;;;;;;;1999.90;999.90;;;;;;;10.33;100.00;98808.78;10334210;28;20054;-72
2024/01/02 13:47:06;;;;;;;1999.90;999.90;;;;;;;10.32;100.00;98791.47;10332604;28;20395;-72
2024/01/02 13:52:09;;;;;;;1999.90;999.90;;;;;;;10.54;100.00;98779.91;10334046;28;20054;-72
2024/01/02 13:57:11;;;;;;;1999.90;999.90;;;;;;;10.34;100.00;98765.13;10333753;28;20085;-72
2024/01/02 14:02:14;;;;;;;1999.90;999.90;;;;;;;10.23;100.00;98748.59;10332611;28;20078;-72
2024/01/02 14:07:17;;;;;;;1999.90;999.90;;;;;;;10.33;100.00;98746.00;10339573;28;20058;-72
2024/01/02 14:12:19;;;;;;;1999.90;999.90;;;;;;;10.31;100.00;98739.25;10341521;28;20496;-72
2024/01/02 14:17:29;;;;;;;1999.90;999.90;;;;;;;10.37;100.00;98725.63;10340180;28;20122;-72
2024/01/02 14:23:00;;;;;;;1999.90;999.90;;;;;;;10.56;100.00;98714.38;10340428;28;20552;-72
2024/01/02 14:28:29;;;;;;;1999.90;999.90;;;;;;;10.52;100.00;98711.19;10323949;28;20057;-72
2024/01/02 14:33:59;;;;;;;1999.90;999.90;;;;;;;10.49;100.00;98695.78;10336159;28;20055;-71
2024/01/02 14:39:08;;;;;;;1999.90;999.90;;;;;;;10.48;100.00;98694.13;10340715;28;20058;-72
2024/01/02 14:44:19;;;;;;;1999.90;999.90;;;;;;;10.54;100.00;98670.00;10340239;28;20046;-72
2024/01/02 14:49:28;;;;;;;1999.90;999.90;;;;;;;10.64;100.00;98667.38;10340827;28;20046;-72
2024/01/02 14:54:39;;;;;;;1999.90;999.90;;;;;;;10.67;100.00;98656.63;10352885;23;20140;-68
2024/01/02 14:59:48;;;;;;;1999.90;999.90;;;;;;;10.72;100.00;98649.16;10338944;28;20057;-68
2024/01/02 15:05:24;;;;;;;1999.90;999.90;;;;;;;10.70;100.00;98632.78;10339706;28;20289;-68
2024/01/02 15:10:31;;;;;;;1999.90;999.90;;;;;;;10.70;100.00;98621.50;10338450;28;20054;-68
2024/01/02 15:15:49;;;;;;;1999.90;999.90;;;;;;;10.68;100.00;98608.56;10338434;28;20473;-68
2024/01/02 15:21:05;;;;;;;1999.90;999.90;;;;;;;10.80;100.00;98597.91;10338016;28;20070;-68
2024/01/02 15:26:32;;;;;;;1999.90;999.90;;;;;;;10.76;100.00;98579.88;10337602;28;20046;-68
2024/01/02 15:31:43;;;;;;;1999.90;999.90;;;;;;;10.69;100.00;98570.97;10339022;28;20474;-68
2024/01/02 15:37:09;;;;;;;1999.90;999.90;;;;;;;10.81;100.00;98563.75;10337754;28;20137;-68
2024/01/02 15:42:37;;;;;;;1999.90;999.90;;;;;;;10.65;100.00;98550.44;10308646;28;20057;-68
2024/01/02 15:47:53;;;;;;;1999.90;999.90;;;;;;;10.68;100.00;98522.19;10338039;28;20072;-68
2024/01/02 15:53:15;;;;;;;1999.90;999.90;;;;;;;10.65;100.00;98509.38;10338195;28;20153;-68
2024/01/02 15:58:28;;;;;;;1999.90;999.90;;;;;;;10.56;100.00;98479.69;10336577;28;20049;-68
2024/01/02 16:03:48;;;;;;;1999.90;999.90;;;;;;;10.75;100.00;98470.91;10337333;28;20457;-68
2024/01/02 16:09:02;;;;;;;1999.90;999.90;;;;;;;10.67;100.00;98455.09;10337241;28;20050;-68
2024/01/02 16:14:37;;;;;;;1999.90;999.90;;;;;;;10.71;100.00;98439.97;10337070;28;20050;-69
2024/01/02 16:19:48;;;;;;;1999.90;999.90;;;;;;;10.58;100.00;98424.59;10313759;28;20074;-69
2024/01/02 16:24:57;;;;;;;;;;;;;;;10.55;100.00;98409.19;10337049;28;20145;-68
2024/01/02 16:30:11;;;;;;;1999.90;999.90;;;;;;;10.58;100.00;98393.19;10335918;28;19972;-69
2024/01/02 16:35:32;;;;;;;1999.90;999.90;;;;;;;10.50;100.00;98399.16;10336896;28;20093;-68
2024/01/02 16:40:50;;;;;;;1999.90;999.90;;;;;;;10.53;100.00;98393.63;10334853;28;20046;-68
2024/01/02 16:45:57;;;;;;;1999.90;999.90;;;;;;;10.44;100.00;98386.69;10335942;28;20078;-69
2024/01/02 16:51:01;;;;;;;1999.90;999.90;;;;;;;10.65;100.00;98377.75;10335639;28;20049;-69
2024/01/02 16:56:05;;;;;;;1999.90;999.90;;;;;;;10.66;100.00;98376.75;10335703;28;20062;-70
2024/01/02 17:01:11;;;;;;;1999.90;999.90;;;;;;;10.61;100.00;98366.75;10335174;28;20050;-69
2024/01/02 17:06:14;;;;;;;1999.90;999.90;;;;;;;10.71;100.00;98359.66;10333655;28;20390;-69
2024/01/02 17:11:16;;;;;;;1999.90;999.90;;;;;;;10.74;100.00;98348.88;10333563;28;20130;-68
2024/01/02 17:16:19;;;;;;;1999.90;999.90;;;;;;;10.79;100.00;98337.94;10334597;28;20062;-64
2024/01/02 17:21:24;;;;;;;1999.90;999.90;;;;;;;10.87;100.00;98324.13;10333355;28;20057;-64
2024/01/02 17:26:26;;;;;;;1999.90;999.90;;;;;;;10.80;100.00;98313.44;10333188;28;20064;-64
2024/01/02 17:31:30;;;;;;;1999.90;999.90;;;;;;;10.85;100.00;98302.53;10333011;28;20244;-64
2024/01/02 17:36:32;;;;;;;1999.90;999.90;;;;;;;10.87;100.00;98298.75;10332993;28;20053;-63
2024/01/02 17:41:37;;;;;;;1999.90;999.90;;;;;;;10.86;100.00;98304.16;10332057;28;20390;-63
2024/01/02 17:46:39;;;;;;;1999.90;999.90;;;;;;;10.95;100.00;98282.31;10332966;28;20050;-63
2024/01/02 17:51:42;;;;;;;1999.90;999.90;;;;;;;10.98;100.00;98274.16;10332863;28;20145;-64
2024/01/02 17:56:45;;;;;;;1999.90;999.90;;;;;;;11.04;100.00;98275.34;10333589;28;20046;-64
2024/01/02 18:02:03;;;;;;;1999.90;999.90;;;;;;;11.15;100.00;98270.66;10332467;28;20046;-64
2024/01/02 18:07:44;;;;;;;1999.90;999.90;;;;;;;11.22;100.00;98288.41;10332714;28;20054;-64
2024/01/02 18:13:05;;;;;;;1999.90;999.90;;;;;;;11.25;100.00;98272.38;10331364;28;20472;-64
2024/01/02 18:18:40;;;;;;;1999.90;999.90;;;;;;;11.19;100.00;98259.91;10315496;28;20409;-63
2024/01/02 18:23:56;;;;;;;1999.90;999.90;;;;;;;11.30;100.00;98263.06;10333380;28;20133;-64
2024/01/02 18:29:16;;;;;;;1999.90;999.90;;;;;;;11.24;100.00;98266.31;10331809;28;20200;-63
2024/01/02 18:34:24;;;;;;;1999.90;999.90;;;;;;;11.18;100.00;98232.06;10332058;28;20074;-63
2024/01/02 18:39:58;;;;;;;1999.90;999.90;;;;;;;11.14;100.00;98232.34;10332705;28;20101;-63
2024/01/02 18:45:25;;;;;;;1999.90;999.90;;;;;;;11.23;100.00;98241.09;10329584;28;20404;-64
2024/01/02 18:50:31;;;;;;;1999.90;999.90;;;;;;;11.12;100.00;98254.44;10333621;28;20472;-63
2024/01/02 18:55:34;;;;;;;1999.90;999.90;;;;;;;11.29;100.00;98271.09;10339820;28;20093;-64
2024/01/02 19:00:38;;;;;;;1999.90;999.90;;;;;;;11.37;100.00;98257.22;10339643;28;20126;-64
2024/01/02 19:05:42;;;;;;;1999.90;999.90;;;;;;;11.18;100.00;98271.34;10338828;28;20050;-63
2024/01/02 19:10:45;;;;;;;1999.90;999.90;;;;;;;11.27;100.00;98278.28;10339263;28;20137;-64
2024/01/02 19:15:49;;;;;;;1999.90;999.90;;;;;;;11.25;100.00;98301.19;10339231;28;20383;-63
2024/01/02 19:20:55;;;;;;;1999.90;999.90;;;;;;;11.07;100.00;98295.97;10339267;28;20050;-63
2024/01/02 19:25:57;;;;;;;1999.90;999.90;;;;;;;10.97;100.00;98306.53;10338771;28;20050;-63
2024/01/02 19:31:03;;;;;;;1999.90;999.90;;;;;;;10.97;100.00;98291.63;10321542;28;20074;-64
2024/01/02 19:36:05;;;;;;;1999.90;999.90;;;;;;;11.14;100.00;98286.53;10337272;28;20489;-63
2024/01/02 19:41:08;;;;;;;1999.90;999.90;;;;;;;10.99;100.00;98288.88;10337277;28;20075;-64
2024/01/02 19:46:11;;;;;;;1999.90;999.90;;;;;;;11.03;100.00;98278.91;10338137;28;20057;-63
2024/01/02 19:51:15;;;;;;;1999.90;999.90;;;;;;;10.93;100.00;98289.50;10336685;28;20409;-64
2024/01/02 19:56:17;;;;;;;1999.90;999.90;;;;;;;10.88;100.00;98299.59;10337554;28;20137;-64
2024/01/02 20:01:20;;;;;;;1999.90;999.90;;;;;;;11.02;100.00;98299.06;10336815;28;20142;-63
2024/01/02 20:06:43;;;;;;;1999.90;999.90;;;;;;;10.94;100.00;98275.41;10337246;28;20509;-63
2024/01/02 20:11:45;;;;;;;1999.90;999.90;;;;;;;10.82;100.00;98311.47;10336944;28;20557;-63
2024/01/02 20:16:52;;;;;;;1999.90;999.90;;;;;;;10.75;100.00;98310.44;10337049;28;20047;-63
2024/01/02 20:21:54;;;;;;;1999.90;999.90;;;;;;;10.82;100.00;98259.13;10335529;28;20082;-63
2024/01/02 20:26:58;;;;;;;1999.90;999.90;;;;;;;10.74;100.00;98312.25;10335513;28;20060;-63
2024/01/02 20:32:01;;;;;;;1999.90;999.90;;;;;;;11.03;100.00;98312.94;10336301;28;20046;-64
2024/01/02 20:37:25;;;;;;;1999.90;999.90;;;;;;;11.14;99.31;98310.91;10335346;28;20057;-63
2024/01/02 20:42:28;;;;;;;1999.90;999.90;;;;;;;11.04;100.00;98317.22;10336163;28;20057;-64
2024/01/02 20:47:39;;;;;;;1999.90;999.90;;;;;;;10.87;100.00;98290.91;10336174;28;20054;-63
2024/01/02 20:52:42;;;;;;;1999.90;999.90;;;;;;;11.25;95.46;98295.97;10335537;28;20133;-63
2024/01/02 20:57:44;;;;;;;1999.90;999.90;;;;;;;11.04;94.72;98296.28;10335480;28;20061;-63
2024/01/02 21:02:47;;;;;;;1999.90;999.90;;;;;;;10.97;96.71;98283.78;10333925;28;20412;-63
2024/01/02 21:07:50;;;;;;;1999.90;999.90;;;;;;;10.93;95.18;98268.56;10334844;28;20053;-63
2024/01/02 21:12:53;;;;;;;1999.90;999.90;;;;;;;11.21;88.16;98273.66;10332807;28;20129;-63
2024/01/02 21:17:55;;;;;;;1999.90;999.90;;;;;;;11.01;92.02;98276.47;10334666;28;20129;-63
2024/01/02 21:23:03;;;;;;;1999.90;999.90;;;;;;;10.96;96.15;98281.31;10333630;28;20050;-63
2024/01/02 21:28:08;;;;;;;1999.90;999.90;;;;;;;11.14;92.19;98269.00;10334401;28;20053;-63
2024/01/02 21:33:11;;;;;;;1999.90;999.90;;;;;;;11.02;93.63;98290.38;10333102;28;20058;-63
2024/01/02 21:38:17;;;;;;;1999.90;999.90;;;;;;;11.20;90.38;98288.56;10333574;28;20060;-63
2024/01/02 21:43:27;;;;;;;1999.90;999.90;;;;;;;11.03;92.79;98303.31;10333897;28;20089;-63
2024/01/02 21:48:46;;;;;;;1999.90;999.90;;;;;;;11.15;92.14;98327.47;10334433;28;20085;-63
2024/01/02 21:54:03;;;;;;;1999.90;999.90;;;;;;;10.99;93.11;98328.16;10332472;28;20138;-63
2024/01/02 21:59:20;;;;;;;1999.90;999.90;;;;;;;11.09;92.73;98325.44;10332680;28;20046;-64
2024/01/02 22:04:23;;;;;;;1999.90;999.90;;;;;;;10.88;94.84;98339.69;10333562;28;20050;-63
2024/01/02 22:09:29;;;;;;;1999.90;999.90;;;;;;;10.94;94.58;98344.34;10333499;28;20049;-62
2024/01/02 22:14:31;;;;;;;1999.90;999.90;;;;;;;10.96;94.21;98362.47;10332237;28;20428;-63
2024/01/02 22:19:51;;;;;;;1999.90;999.90;;;;;;;10.90;95.29;98357.84;10333475;28;20046;-63